Time;durP1;ratioP1;P1;durP2;ratioP2;P2;SDS_P1;SDS_P2;PMS_P1;PMS_P2;Temp;Humidity;BMP_temperature;BMP_pressure;BME280_temperature;BME280_humidity;BME280_pressure;Samples;Min_cycle;Max_cycle;Signal;HPM_P1;HPM_P2
2022/10/29 00:02:02;;;;;;;;;;;20.30;73.00;;;;;;5091545;28;895;-66
2022/10/29 00:04:28;;;;;;;;;;;20.30;73.00;;;;;;5090936;28;1073;-67
2022/10/29 00:06:53;;;;;;;;;;;20.30;73.00;;;;;;5091367;28;1886;-67
2022/10/29 00:09:19;;;;;;;;;;;20.30;73.00;;;;;;5091216;28;1354;-67
2022/10/29 00:11:44;;;;;;;;;;;20.30;73.00;;;;;;5092633;28;899;-67
2022/10/29 00:14:10;;;;;;;;;;;20.30;73.00;;;;;;5091083;28;825;-68
2022/10/29 00:16:36;;;;;;;;;;;20.30;73.00;;;;;;5092245;28;837;-68
2022/10/29 00:19:02;;;;;;;;;;;20.30;73.00;;;;;;5072596;28;1274;-68
2022/10/29 00:21:28;;;;;;;;;;;20.30;73.00;;;;;;5067131;28;935;-68
2022/10/29 00:23:53;;;;;;;;;;;20.30;73.00;;;;;;5093764;28;1029;-68
2022/10/29 00:26:19;;;;;;;;;;;20.30;73.00;;;;;;5092921;28;1006;-66
2022/10/29 00:28:45;;;;;;;;;;;20.30;73.00;;;;;;5073129;28;1902;-67
2022/10/29 00:31:11;;;;;;;;;;;20.30;73.00;;;;;;5074238;28;1416;-67
2022/10/29 00:33:37;;;;;;;;;;;20.30;73.00;;;;;;5073414;28;1018;-67
2022/10/29 00:36:03;;;;;;;;;;;20.30;73.00;;;;;;5091977;28;1396;-66
2022/10/29 00:38:29;;;;;;;;;;;20.30;73.00;;;;;;5073177;28;1259;-67
2022/10/29 00:40:54;;;;;;;;;;;20.30;73.00;;;;;;5092543;28;854;-67
2022/10/29 00:43:20;;;;;;;;;;;20.30;73.00;;;;;;5091027;28;804;-67
2022/10/29 00:46:06;;;;;;;;;;;20.30;73.00;;;;;;5090274;28;821;-67
2022/10/29 00:48:32;;;;;;;;;;;20.30;73.00;;;;;;5091593;28;1957;-68
2022/10/29 00:50:58;;;;;;;;;;;20.30;73.00;;;;;;5077813;28;835;-68
2022/10/29 00:53:24;;;;;;;;;;;20.30;73.00;;;;;;5078180;28;889;-67
2022/10/29 00:55:50;;;;;;;;;;;20.30;73.00;;;;;;5075624;28;852;-66
2022/10/29 00:58:15;;;;;;;;;;;20.30;73.10;;;;;;5075844;28;1324;-69
2022/10/29 01:00:41;;;;;;;;;;;20.30;73.00;;;;;;5094811;28;1052;-68
2022/10/29 01:03:07;;;;;;;;;;;20.30;73.00;;;;;;5076305;28;1331;-67
2022/10/29 01:05:32;;;;;;;;;;;20.30;73.10;;;;;;5093139;28;957;-67
2022/10/29 01:07:57;;;;;;;;;;;20.30;73.00;;;;;;5093727;28;1977;-67
2022/10/29 01:10:26;;;;;;;;;;;20.30;73.00;;;;;;5075287;28;1064;-67
2022/10/29 01:12:55;;;;;;;;;;;20.30;73.00;;;;;;5076611;28;1018;-67
2022/10/29 01:15:35;;;;;;;;;;;20.30;73.00;;;;;;5093229;28;796;-67
2022/10/29 01:18:07;;;;;;;;;;;20.30;73.00;;;;;;5074054;28;1278;-67
2022/10/29 01:20:51;;;;;;;;;;;20.30;73.10;;;;;;5096423;28;816;-67
2022/10/29 01:23:19;;;;;;;;;;;20.30;73.10;;;;;;5094047;28;918;-67
2022/10/29 01:25:47;;;;;;;;;;;20.30;73.10;;;;;;5095013;28;870;-67
2022/10/29 01:28:18;;;;;;;;;;;20.30;73.10;;;;;;5095091;28;1965;-67
2022/10/29 01:31:02;;;;;;;;;;;20.30;73.10;;;;;;5079408;28;965;-67
2022/10/29 01:33:36;;;;;;;;;;;20.30;73.10;;;;;;5093917;28;1462;-67
2022/10/29 01:36:02;;;;;;;;;;;20.30;73.10;;;;;;5092320;28;1058;-68
2022/10/29 01:38:32;;;;;;;;;;;20.30;73.10;;;;;;5095323;28;1253;-67
2022/10/29 01:41:07;;;;;;;;;;;20.30;73.10;;;;;;5097918;28;828;-67
2022/10/29 01:44:08;;;;;;;;;;;20.30;73.10;;;;;;5077377;28;1101;-67
2022/10/29 01:46:38;;;;;;;;;;;20.30;73.10;;;;;;5017097;28;1898;-69
2022/10/29 01:49:04;;;;;;;;;;;20.30;73.10;;;;;;5061271;28;1261;-67
2022/10/29 01:51:30;;;;;;;;;;;20.30;73.10;;;;;;5099012;28;792;-68
2022/10/29 01:53:56;;;;;;;;;;;20.30;73.10;;;;;;5093933;28;930;-67
2022/10/29 01:56:21;;;;;;;;;;;20.30;73.10;;;;;;5082423;28;1335;-67
2022/10/29 01:58:48;;;;;;;;;;;20.30;73.10;;;;;;5093650;28;1226;-67
2022/10/29 02:01:17;;;;;;;;;;;20.30;73.10;;;;;;5078874;28;1215;-67
2022/10/29 02:04:00;;;;;;;;;;;20.30;73.10;;;;;;5097870;28;855;-68
2022/10/29 02:06:32;;;;;;;;;;;20.30;73.90;;;;;;5080249;28;839;-68
2022/10/29 02:09:06;;;;;;;;;;;20.30;73.10;;;;;;5068426;28;1968;-68
2022/10/29 02:11:32;;;;;;;;;;;20.30;73.10;;;;;;5075781;28;1026;-67
2022/10/29 02:13:57;;;;;;;;;;;20.30;73.10;;;;;;5095005;28;1009;-67
2022/10/29 02:16:23;;;;;;;;;;;20.30;73.10;;;;;;5097086;28;956;-68
2022/10/29 02:18:48;;;;;;;;;;;20.30;73.10;;;;;;5076143;28;1369;-67
2022/10/29 02:21:14;;;;;;;;;;;20.30;73.10;;;;;;5078929;28;1009;-67
2022/10/29 02:23:40;;;;;;;;;;;20.30;73.10;;;;;;5092523;28;982;-67
2022/10/29 02:26:05;;;;;;;;;;;20.30;73.10;;;;;;5097711;28;981;-67
2022/10/29 02:28:31;;;;;;;;;;;20.30;73.10;;;;;;5092270;28;1893;-67
2022/10/29 02:30:56;;;;;;;;;;;20.30;73.10;;;;;;5092574;28;836;-67
2022/10/29 02:33:22;;;;;;;;;;;20.30;73.10;;;;;;5093000;28;1435;-67
2022/10/29 02:35:47;;;;;;;;;;;20.30;73.20;;;;;;5091932;28;874;-67
2022/10/29 02:38:13;;;;;;;;;;;20.30;73.10;;;;;;5093954;28;1271;-67
2022/10/29 02:40:38;;;;;;;;;;;20.30;73.10;;;;;;5092651;28;1006;-67
2022/10/29 02:43:04;;;;;;;;;;;20.30;73.10;;;;;;5091969;28;1053;-67
2022/10/29 02:45:29;;;;;;;;;;;20.30;73.10;;;;;;5093891;28;1076;-68
2022/10/29 02:47:55;;;;;;;;;;;20.30;73.10;;;;;;5098245;28;1902;-68
2022/10/29 02:50:20;;;;;;;;;;;20.30;73.10;;;;;;5093753;28;748;-68
2022/10/29 02:52:45;;;;;;;;;;;20.30;73.20;;;;;;5093955;28;839;-68
2022/10/29 02:55:11;;;;;;;;;;;20.30;73.20;;;;;;5093870;28;784;-67
2022/10/29 02:57:36;;;;;;;;;;;20.30;73.20;;;;;;5093923;28;1212;-68
2022/10/29 03:00:02;;;;;;;;;;;20.30;73.20;;;;;;5096239;28;1167;-67
2022/10/29 03:02:28;;;;;;;;;;;20.30;73.20;;;;;;5077318;28;899;-69
2022/10/29 03:04:53;;;;;;;;;;;20.30;73.20;;;;;;5093602;28;737;-69
2022/10/29 03:07:18;;;;;;;;;;;20.30;73.20;;;;;;5094445;28;1913;-67
2022/10/29 03:09:44;;;;;;;;;;;20.30;73.20;;;;;;5091899;28;1283;-68
2022/10/29 03:12:09;;;;;;;;;;;20.30;73.20;;;;;;5092808;28;879;-67
2022/10/29 03:14:35;;;;;;;;;;;20.30;73.20;;;;;;5091845;28;855;-67
2022/10/29 03:17:00;;;;;;;;;;;20.30;73.20;;;;;;5092156;28;863;-68
2022/10/29 03:19:26;;;;;;;;;;;20.30;73.20;;;;;;5091594;28;1280;-68
2022/10/29 03:21:51;;;;;;;;;;;20.30;73.20;;;;;;5091288;28;903;-67
2022/10/29 03:24:16;;;;;;;;;;;20.30;73.20;;;;;;5090472;28;899;-68
2022/10/29 03:26:42;;;;;;;;;;;20.30;73.20;;;;;;5090326;28;1963;-67
2022/10/29 03:29:07;;;;;;;;;;;20.30;73.20;;;;;;5093180;28;1346;-68
2022/10/29 03:31:33;;;;;;;;;;;20.30;73.20;;;;;;5090876;28;1380;-68
2022/10/29 03:33:58;;;;;;;;;;;20.30;73.20;;;;;;5091150;28;963;-68
2022/10/29 03:36:23;;;;;;;;;;;20.30;73.20;;;;;;5094044;28;1081;-68
2022/10/29 03:38:49;;;;;;;;;;;20.30;73.20;;;;;;5093687;28;1278;-68
2022/10/29 03:41:14;;;;;;;;;;;20.30;73.20;;;;;;5092843;28;855;-69
2022/10/29 03:43:40;;;;;;;;;;;20.30;73.20;;;;;;5096893;28;847;-68
2022/10/29 03:46:05;;;;;;;;;;;20.20;73.10;;;;;;5091944;28;808;-68
2022/10/29 03:48:31;;;;;;;;;;;20.30;73.20;;;;;;5091441;28;1898;-69
2022/10/29 03:50:57;;;;;;;;;;;20.30;73.20;;;;;;5092088;28;876;-68
2022/10/29 03:53:22;;;;;;;;;;;20.30;73.20;;;;;;5076861;28;914;-68
2022/10/29 03:55:48;;;;;;;;;;;20.30;73.20;;;;;;5091770;28;858;-68
2022/10/29 03:58:14;;;;;;;;;;;20.30;73.20;;;;;;5091102;28;1722;-68
2022/10/29 04:00:39;;;;;;;;;;;20.30;73.20;;;;;;5072264;28;867;-69
2022/10/29 04:03:05;;;;;;;;;;;20.30;73.20;;;;;;5091642;28;867;-68
2022/10/29 04:05:30;;;;;;;;;;;20.30;73.20;;;;;;5092355;28;984;-68
2022/10/29 04:07:56;;;;;;;;;;;20.30;73.20;;;;;;5090641;28;1905;-68
2022/10/29 04:10:21;;;;;;;;;;;20.30;73.30;;;;;;5096023;28;941;-67
2022/10/29 04:12:46;;;;;;;;;;;20.30;73.20;;;;;;5095027;28;898;-67
2022/10/29 04:15:12;;;;;;;;;;;20.30;73.20;;;;;;5091420;28;934;-67
2022/10/29 04:17:37;;;;;;;;;;;20.30;73.10;;;;;;5091356;28;998;-68
2022/10/29 04:20:03;;;;;;;;;;;20.30;73.10;;;;;;5091310;28;1207;-68
2022/10/29 04:22:28;;;;;;;;;;;20.30;73.00;;;;;;5097766;28;898;-67
2022/10/29 04:24:54;;;;;;;;;;;20.30;72.90;;;;;;5092377;28;840;-67
2022/10/29 04:27:19;;;;;;;;;;;20.40;72.90;;;;;;5093110;28;1949;-67
2022/10/29 04:29:45;;;;;;;;;;;20.40;72.90;;;;;;5092260;28;1262;-68
2022/10/29 04:32:10;;;;;;;;;;;20.40;72.80;;;;;;5093391;28;1053;-68
2022/10/29 04:34:35;;;;;;;;;;;20.40;72.70;;;;;;5077042;28;2053;-67
2022/10/29 04:37:01;;;;;;;;;;;20.40;72.50;;;;;;5087092;28;1109;-66
2022/10/29 04:39:26;;;;;;;;;;;20.40;72.40;;;;;;5087863;28;1358;-67
2022/10/29 04:41:52;;;;;;;;;;;20.50;72.50;;;;;;5089783;28;1256;-68
2022/10/29 04:44:18;;;;;;;;;;;20.50;72.40;;;;;;5089615;28;915;-69
2022/10/29 04:46:44;;;;;;;;;;;20.50;72.40;;;;;;5090731;28;1959;-67
2022/10/29 04:49:09;;;;;;;;;;;20.50;72.20;;;;;;5089097;28;1342;-67
2022/10/29 04:51:35;;;;;;;;;;;20.50;72.20;;;;;;5089982;28;836;-68
2022/10/29 04:54:00;;;;;;;;;;;20.50;72.20;;;;;;5089751;28;883;-67
2022/10/29 04:56:26;;;;;;;;;;;20.50;72.10;;;;;;5095046;28;813;-67
2022/10/29 04:58:51;;;;;;;;;;;20.60;72.00;;;;;;5090280;28;1267;-67
2022/10/29 05:01:17;;;;;;;;;;;20.60;72.00;;;;;;5089678;28;857;-66
2022/10/29 05:03:42;;;;;;;;;;;20.60;72.00;;;;;;5089081;28;915;-67
2022/10/29 05:06:07;;;;;;;;;;;20.60;71.80;;;;;;5091337;28;1292;-68
2022/10/29 05:08:33;;;;;;;;;;;20.60;71.80;;;;;;5074637;28;1946;-67
2022/10/29 05:11:04;;;;;;;;;;;20.60;71.70;;;;;;5088694;28;1096;-67
2022/10/29 05:13:30;;;;;;;;;;;20.60;71.70;;;;;;5089674;28;785;-67
2022/10/29 05:15:55;;;;;;;;;;;20.70;71.70;;;;;;5088559;28;1153;-67
2022/10/29 05:18:21;;;;;;;;;;;20.70;71.70;;;;;;5087637;28;1216;-67
2022/10/29 05:20:46;;;;;;;;;;;20.70;71.90;;;;;;5089422;28;989;-68
2022/10/29 05:23:11;;;;;;;;;;;20.70;71.70;;;;;;5089605;28;1022;-68
2022/10/29 05:25:38;;;;;;;;;;;20.70;71.60;;;;;;5088884;28;1057;-68
2022/10/29 05:28:03;;;;;;;;;;;20.70;71.60;;;;;;5088746;28;1906;-67
2022/10/29 05:30:28;;;;;;;;;;;20.70;71.70;;;;;;5089290;28;1359;-69
2022/10/29 05:32:54;;;;;;;;;;;20.70;71.60;;;;;;5089401;28;1379;-68
2022/10/29 05:35:19;;;;;;;;;;;20.70;71.60;;;;;;5083860;28;2109;-70
2022/10/29 05:37:51;;;;;;;;;;;20.70;71.60;;;;;;5084901;28;934;-69
2022/10/29 05:40:17;;;;;;;;;;;20.70;71.60;;;;;;5073712;28;1761;-68
2022/10/29 05:42:42;;;;;;;;;;;20.70;71.70;;;;;;5088390;28;1432;-68
2022/10/29 05:45:08;;;;;;;;;;;20.70;71.60;;;;;;5092586;28;817;-68
2022/10/29 05:47:33;;;;;;;;;;;20.70;71.60;;;;;;5092360;28;1992;-69
2022/10/29 05:49:59;;;;;;;;;;;20.70;71.50;;;;;;5094618;28;1284;-68
2022/10/29 05:52:24;;;;;;;;;;;20.70;71.60;;;;;;5095395;28;1064;-67
2022/10/29 05:54:50;;;;;;;;;;;20.70;71.50;;;;;;5092099;28;994;-68
2022/10/29 05:57:15;;;;;;;;;;;20.70;71.50;;;;;;5091744;28;1025;-67
2022/10/29 05:59:40;;;;;;;;;;;20.70;71.50;;;;;;5096196;28;1209;-68
2022/10/29 06:02:07;;;;;;;;;;;20.70;71.50;;;;;;5096098;28;906;-69
2022/10/29 06:04:33;;;;;;;;;;;20.70;71.40;;;;;;5093184;28;1013;-68
2022/10/29 06:06:59;;;;;;;;;;;20.70;71.40;;;;;;5093229;28;1922;-67
2022/10/29 06:09:24;;;;;;;;;;;20.70;71.40;;;;;;5076737;28;1240;-68
2022/10/29 06:11:50;;;;;;;;;;;20.70;71.40;;;;;;5097361;28;860;-68
2022/10/29 06:14:15;;;;;;;;;;;20.70;71.40;;;;;;5095816;28;852;-67
2022/10/29 06:16:41;;;;;;;;;;;20.70;71.40;;;;;;5073757;28;1455;-67
2022/10/29 06:19:06;;;;;;;;;;;20.80;71.40;;;;;;5092242;28;1329;-66
2022/10/29 06:21:32;;;;;;;;;;;20.70;71.30;;;;;;5094930;28;825;-66
2022/10/29 06:23:57;;;;;;;;;;;20.70;71.30;;;;;;5094800;28;1847;-67
2022/10/29 06:26:23;;;;;;;;;;;20.70;71.40;;;;;;5077804;28;937;-66
2022/10/29 06:28:48;;;;;;;;;;;20.70;71.40;;;;;;5094862;28;1906;-67
2022/10/29 06:31:13;;;;;;;;;;;20.70;71.40;;;;;;5092934;28;1356;-67
2022/10/29 06:33:39;;;;;;;;;;;20.70;71.40;;;;;;5092963;28;1057;-67
2022/10/29 06:36:04;;;;;;;;;;;20.70;71.40;;;;;;5092630;28;1030;-68
2022/10/29 06:38:30;;;;;;;;;;;20.70;71.40;;;;;;5096341;28;1322;-67
2022/10/29 06:40:55;;;;;;;;;;;20.70;71.40;;;;;;5092329;28;910;-67
2022/10/29 06:43:21;;;;;;;;;;;20.70;71.40;;;;;;5093724;28;875;-67
2022/10/29 06:45:47;;;;;;;;;;;20.70;71.40;;;;;;5096177;28;998;-67
2022/10/29 06:48:12;;;;;;;;;;;20.70;71.40;;;;;;5077670;28;1905;-67
2022/10/29 06:50:38;;;;;;;;;;;20.70;71.40;;;;;;5093680;28;884;-67
2022/10/29 06:53:04;;;;;;;;;;;20.70;71.40;;;;;;5092609;28;831;-66
2022/10/29 06:55:29;;;;;;;;;;;20.70;71.30;;;;;;5093516;28;2142;-66
2022/10/29 06:57:55;;;;;;;;;;;20.70;71.40;;;;;;5092972;28;1435;-67
2022/10/29 07:00:21;;;;;;;;;;;20.70;71.30;;;;;;5091863;28;2059;-67
2022/10/29 07:02:46;;;;;;;;;;;20.80;71.40;;;;;;5093432;28;1109;-67
2022/10/29 07:05:12;;;;;;;;;;;20.70;71.30;;;;;;5091088;28;1351;-67
2022/10/29 07:07:37;;;;;;;;;;;20.80;71.40;;;;;;5092472;28;1906;-67
2022/10/29 07:10:03;;;;;;;;;;;20.80;71.40;;;;;;5093221;28;1342;-67
2022/10/29 07:12:28;;;;;;;;;;;20.70;71.30;;;;;;5093194;28;1080;-67
2022/10/29 07:14:53;;;;;;;;;;;20.70;71.30;;;;;;5091187;28;958;-67
2022/10/29 07:17:19;;;;;;;;;;;20.70;71.30;;;;;;5091890;28;1073;-66
2022/10/29 07:19:44;;;;;;;;;;;20.80;71.40;;;;;;5091977;28;1271;-66
2022/10/29 07:22:10;;;;;;;;;;;20.70;71.40;;;;;;5095731;28;998;-66
2022/10/29 07:24:35;;;;;;;;;;;20.70;71.40;;;;;;5092696;28;851;-67
2022/10/29 07:27:01;;;;;;;;;;;20.70;71.40;;;;;;5092077;28;1910;-67
2022/10/29 07:29:26;;;;;;;;;;;20.70;71.40;;;;;;5093100;28;1267;-67
2022/10/29 07:31:51;;;;;;;;;;;20.70;71.50;;;;;;5094005;28;1356;-67
2022/10/29 07:34:17;;;;;;;;;;;20.70;71.50;;;;;;5091149;28;883;-67
2022/10/29 07:36:42;;;;;;;;;;;20.70;71.50;;;;;;5091425;28;868;-67
2022/10/29 07:39:08;;;;;;;;;;;20.70;71.50;;;;;;5091969;28;1290;-67
2022/10/29 07:41:33;;;;;;;;;;;20.70;71.50;;;;;;5092735;28;922;-68
2022/10/29 07:43:59;;;;;;;;;;;20.70;71.60;;;;;;5090510;28;1264;-67
2022/10/29 07:46:24;;;;;;;;;;;20.70;71.50;;;;;;5091738;28;934;-66
2022/10/29 07:48:50;;;;;;;;;;;20.70;71.60;;;;;;5091339;28;1972;-67
2022/10/29 07:51:15;;;;;;;;;;;20.70;71.60;;;;;;5090722;28;840;-67
2022/10/29 07:53:40;;;;;;;;;;;20.70;71.60;;;;;;5090657;28;793;-67
2022/10/29 07:56:06;;;;;;;;;;;20.70;71.70;;;;;;5090499;28;796;-67
2022/10/29 07:58:31;;;;;;;;;;;20.70;71.70;;;;;;5091024;28;1204;-67
2022/10/29 08:00:58;;;;;;;;;;;20.70;71.70;;;;;;5092675;28;779;-67
2022/10/29 08:03:23;;;;;;;;;;;20.70;71.70;;;;;;5073738;28;903;-67
2022/10/29 08:05:48;;;;;;;;;;;20.70;71.70;;;;;;5091975;28;871;-67
2022/10/29 08:08:14;;;;;;;;;;;20.70;71.80;;;;;;5090767;28;1910;-67
2022/10/29 08:10:39;;;;;;;;;;;20.70;71.80;;;;;;5092570;28;878;-67
2022/10/29 08:13:05;;;;;;;;;;;20.60;71.80;;;;;;5092287;28;848;-66
2022/10/29 08:15:31;;;;;;;;;;;20.60;71.80;;;;;;5092332;28;862;-67
2022/10/29 08:17:56;;;;;;;;;;;20.60;72.60;;;;;;5091574;28;1290;-67
2022/10/29 08:20:22;;;;;;;;;;;20.60;71.90;;;;;;5091781;28;882;-67
2022/10/29 08:22:48;;;;;;;;;;;20.60;71.80;;;;;;5074783;28;1322;-67
2022/10/29 08:25:13;;;;;;;;;;;20.60;71.80;;;;;;5091619;28;783;-67
2022/10/29 08:27:39;;;;;;;;;;;20.60;71.90;;;;;;5074929;28;1890;-67
2022/10/29 08:30:05;;;;;;;;;;;20.60;72.00;;;;;;5091078;28;1286;-67
2022/10/29 08:32:30;;;;;;;;;;;20.60;71.90;;;;;;5091215;28;1359;-67
2022/10/29 08:34:56;;;;;;;;;;;20.60;72.00;;;;;;5089645;28;1022;-67
2022/10/29 08:37:21;;;;;;;;;;;20.60;72.00;;;;;;5091247;28;820;-67
2022/10/29 08:39:47;;;;;;;;;;;20.60;72.00;;;;;;5097302;28;1369;-67
2022/10/29 08:42:24;;;;;;;;;;;20.60;72.10;;;;;;5092589;28;891;-66
2022/10/29 08:45:01;;;;;;;;;;;20.60;72.10;;;;;;5093028;28;986;-67
2022/10/29 08:47:26;;;;;;;;;;;20.60;72.10;;;;;;5090514;28;1921;-67
2022/10/29 08:50:02;;;;;;;;;;;20.60;72.10;;;;;;5074045;28;1198;-67
2022/10/29 08:52:28;;;;;;;;;;;20.60;72.20;;;;;;5072187;28;953;-67
2022/10/29 08:54:58;;;;;;;;;;;20.60;72.10;;;;;;5072776;28;878;-67
2022/10/29 08:57:24;;;;;;;;;;;20.60;72.20;;;;;;5075668;28;936;-66
2022/10/29 09:00:01;;;;;;;;;;;20.50;72.10;;;;;;5090452;28;1252;-67
2022/10/29 09:02:28;;;;;;;;;;;20.60;72.20;;;;;;5074281;28;1281;-67
2022/10/29 09:04:54;;;;;;;;;;;20.50;72.10;;;;;;5090923;28;878;-67
2022/10/29 09:07:42;;;;;;;;;;;20.50;72.20;;;;;;5094453;28;1906;-67
2022/10/29 09:10:20;;;;;;;;;;;20.60;72.30;;;;;;5074572;28;1232;-67
2022/10/29 09:13:05;;;;;;;;;;;20.50;72.20;;;;;;5094046;28;947;-66
2022/10/29 09:15:30;;;;;;;;;;;20.50;72.20;;;;;;5075621;28;911;-66
2022/10/29 09:18:04;;;;;;;;;;;20.50;72.20;;;;;;5095447;28;1278;-67
2022/10/29 09:20:39;;;;;;;;;;;20.50;72.30;;;;;;5093612;28;1293;-67
2022/10/29 09:23:13;;;;;;;;;;;20.50;72.30;;;;;;5096782;28;899;-67
2022/10/29 09:25:43;;;;;;;;;;;20.50;72.30;;;;;;5076731;28;1022;-67
2022/10/29 09:28:08;;;;;;;;;;;20.50;72.30;;;;;;5075582;28;1951;-67
2022/10/29 09:30:37;;;;;;;;;;;20.50;72.40;;;;;;5096397;28;954;-67
2022/10/29 09:33:06;;;;;;;;;;;20.50;72.40;;;;;;5076272;28;1352;-66
2022/10/29 09:35:54;;;;;;;;;;;20.50;72.40;;;;;;5077408;28;828;-67
2022/10/29 09:38:30;;;;;;;;;;;20.50;72.40;;;;;;5086298;28;1260;-66
2022/10/29 09:40:56;;;;;;;;;;;20.50;72.40;;;;;;5075994;28;812;-67
2022/10/29 09:43:40;;;;;;;;;;;20.50;72.50;;;;;;5076544;28;1427;-67
2022/10/29 09:46:08;;;;;;;;;;;20.50;72.50;;;;;;5094182;28;827;-67
2022/10/29 09:48:39;;;;;;;;;;;20.50;72.50;;;;;;5075465;28;1914;-67
2022/10/29 09:51:04;;;;;;;;;;;20.50;72.50;;;;;;5093141;28;1088;-68
2022/10/29 09:53:30;;;;;;;;;;;20.50;72.50;;;;;;5094147;28;887;-67
2022/10/29 09:55:55;;;;;;;;;;;20.50;72.50;;;;;;5075231;28;918;-67
2022/10/29 09:58:24;;;;;;;;;;;20.50;72.50;;;;;;5080197;28;1349;-67
2022/10/29 10:00:50;;;;;;;;;;;20.50;72.50;;;;;;5076363;28;898;-67
2022/10/29 10:03:28;;;;;;;;;;;20.50;72.50;;;;;;5076797;28;831;-67
2022/10/29 10:05:59;;;;;;;;;;;20.50;72.50;;;;;;5092366;28;1700;-66
2022/10/29 10:08:24;;;;;;;;;;;20.50;72.50;;;;;;5091931;28;1909;-67
2022/10/29 10:10:51;;;;;;;;;;;20.50;72.60;;;;;;5092260;28;883;-67
2022/10/29 10:13:16;;;;;;;;;;;20.50;72.60;;;;;;5078644;28;871;-67
2022/10/29 10:15:47;;;;;;;;;;;20.50;72.60;;;;;;5075901;28;939;-67
2022/10/29 10:18:16;;;;;;;;;;;20.50;72.60;;;;;;5092807;28;1283;-67
2022/10/29 10:20:44;;;;;;;;;;;20.50;72.60;;;;;;5079725;28;1037;-67
2022/10/29 10:23:21;;;;;;;;;;;20.50;72.60;;;;;;5076693;28;875;-68
2022/10/29 10:25:47;;;;;;;;;;;20.40;72.50;;;;;;5093890;28;1006;-67
2022/10/29 10:28:17;;;;;;;;;;;20.50;72.60;;;;;;5077574;28;1934;-67
2022/10/29 10:30:43;;;;;;;;;;;20.50;72.70;;;;;;5094215;28;2152;-67
2022/10/29 10:33:22;;;;;;;;;;;20.40;72.70;;;;;;5094519;28;2114;-68
2022/10/29 10:35:47;;;;;;;;;;;20.50;72.70;;;;;;5082359;28;1391;-68
2022/10/29 10:38:13;;;;;;;;;;;20.40;72.70;;;;;;5093487;28;1390;-67
2022/10/29 10:40:39;;;;;;;;;;;20.50;72.70;;;;;;5080169;28;873;-68
2022/10/29 10:43:04;;;;;;;;;;;20.50;72.70;;;;;;5076309;28;1345;-68
2022/10/29 10:45:33;;;;;;;;;;;20.50;72.70;;;;;;5075076;28;915;-67
2022/10/29 10:47:59;;;;;;;;;;;20.40;72.70;;;;;;5082938;28;1955;-67
2022/10/29 10:50:31;;;;;;;;;;;20.50;72.80;;;;;;5077567;28;1550;-68
2022/10/29 10:52:57;;;;;;;;;;;20.50;72.80;;;;;;5077820;28;815;-67
2022/10/29 10:55:24;;;;;;;;;;;20.50;72.80;;;;;;5077002;28;945;-67
2022/10/29 10:58:04;;;;;;;;;;;20.50;72.80;;;;;;5076288;28;816;-67
2022/10/29 11:00:32;;;;;;;;;;;20.40;72.80;;;;;;5074714;28;936;-67
2022/10/29 11:03:07;;;;;;;;;;;20.40;72.80;;;;;;5074730;28;1200;-67
2022/10/29 11:05:34;;;;;;;;;;;20.50;72.80;;;;;;5091201;28;1033;-67
2022/10/29 11:08:02;;;;;;;;;;;20.40;72.80;;;;;;5073921;28;1997;-67
2022/10/29 11:10:42;;;;;;;;;;;20.50;72.90;;;;;;5075128;28;958;-67
2022/10/29 11:13:10;;;;;;;;;;;20.50;72.90;;;;;;5077594;28;966;-67
2022/10/29 11:15:40;;;;;;;;;;;20.40;72.80;;;;;;5091454;28;894;-67
2022/10/29 11:18:23;;;;;;;;;;;20.40;72.90;;;;;;5068149;28;1382;-67
2022/10/29 11:20:54;;;;;;;;;;;20.50;72.90;;;;;;5075873;28;863;-67
2022/10/29 11:23:22;;;;;;;;;;;20.40;72.90;;;;;;5076915;28;868;-67
2022/10/29 11:25:49;;;;;;;;;;;20.50;72.90;;;;;;5076070;28;954;-67
2022/10/29 11:28:25;;;;;;;;;;;20.40;72.90;;;;;;5075997;28;1971;-67
2022/10/29 11:30:51;;;;;;;;;;;20.40;72.80;;;;;;5071638;28;1026;-67
2022/10/29 11:33:19;;;;;;;;;;;20.40;72.80;;;;;;5078954;28;989;-67
2022/10/29 11:35:49;;;;;;;;;;;20.40;72.80;;;;;;5073118;28;1464;-67
2022/10/29 11:38:16;;;;;;;;;;;20.40;72.80;;;;;;5072744;28;1298;-67
2022/10/29 11:40:52;;;;;;;;;;;20.40;72.90;;;;;;5093271;28;1021;-68
2022/10/29 11:43:18;;;;;;;;;;;20.40;72.90;;;;;;5072686;28;851;-68
2022/10/29 11:45:48;;;;;;;;;;;20.40;72.80;;;;;;5076064;28;1076;-67
2022/10/29 11:48:34;;;;;;;;;;;20.40;72.90;;;;;;5074482;28;1889;-67
2022/10/29 11:51:06;;;;;;;;;;;20.40;72.90;;;;;;5087167;28;1107;-67
2022/10/29 11:53:50;;;;;;;;;;;20.40;72.90;;;;;;5092792;28;879;-67
2022/10/29 11:56:19;;;;;;;;;;;20.40;72.90;;;;;;5093758;28;1799;-67
2022/10/29 11:59:00;;;;;;;;;;;20.40;72.90;;;;;;5074144;28;1387;-67
2022/10/29 12:01:33;;;;;;;;;;;20.40;73.00;;;;;;5090050;28;989;-67
2022/10/29 12:04:17;;;;;;;;;;;20.40;72.90;;;;;;5071473;28;1094;-67
2022/10/29 12:06:53;;;;;;;;;;;20.40;72.90;;;;;;5092364;28;1547;-67
2022/10/29 12:09:45;;;;;;;;;;;20.40;72.90;;;;;;5091160;28;1963;-67
2022/10/29 12:12:12;;;;;;;;;;;20.40;72.90;;;;;;5085460;28;1037;-67
2022/10/29 12:14:47;;;;;;;;;;;20.40;73.00;;;;;;5073427;28;863;-67
2022/10/29 12:17:15;;;;;;;;;;;20.40;73.00;;;;;;5091359;28;812;-67
2022/10/29 12:19:44;;;;;;;;;;;20.40;73.00;;;;;;5072837;28;1373;-67
2022/10/29 12:22:14;;;;;;;;;;;20.40;73.00;;;;;;5072066;28;899;-68
2022/10/29 12:24:57;;;;;;;;;;;20.40;73.00;;;;;;5071498;28;1192;-67
2022/10/29 12:27:22;;;;;;;;;;;20.40;73.00;;;;;;5070856;28;1902;-67
2022/10/29 12:29:51;;;;;;;;;;;20.40;73.70;;;;;;5090071;28;1330;-67
2022/10/29 12:32:21;;;;;;;;;;;20.50;73.60;;;;;;5066713;28;1344;-67
2022/10/29 12:35:05;;;;;;;;;;;20.50;73.70;;;;;;5089333;28;1046;-67
2022/10/29 12:37:37;;;;;;;;;;;20.50;74.90;;;;;;5093738;28;910;-67
2022/10/29 12:40:15;;;;;;;;;;;20.50;74.80;;;;;;5073717;28;1378;-67
2022/10/29 12:42:41;;;;;;;;;;;20.50;74.40;;;;;;5093520;28;953;-67
2022/10/29 12:45:25;;;;;;;;;;;20.50;74.90;;;;;;5098149;28;914;-67
2022/10/29 12:47:58;;;;;;;;;;;20.50;74.20;;;;;;5086501;28;1901;-67
2022/10/29 12:50:33;;;;;;;;;;;20.60;73.90;;;;;;5077371;28;847;-67
2022/10/29 12:53:01;;;;;;;;;;;20.60;73.80;;;;;;5058448;28;1184;-67
2022/10/29 12:55:27;;;;;;;;;;;20.60;74.30;;;;;;5096151;28;880;-67
2022/10/29 12:57:52;;;;;;;;;;;20.60;74.30;;;;;;5058990;28;2532;-67
2022/10/29 13:00:21;;;;;;;;;;;20.60;74.10;;;;;;5077777;28;1398;-67
2022/10/29 13:02:46;;;;;;;;;;;20.60;73.80;;;;;;5093854;28;1967;-67
2022/10/29 13:05:13;;;;;;;;;;;20.60;73.70;;;;;;5093230;28;1350;-67
2022/10/29 13:07:44;;;;;;;;;;;20.60;73.50;;;;;;5074904;28;2005;-67
2022/10/29 13:10:22;;;;;;;;;;;20.60;73.60;;;;;;5093955;28;1341;-67
2022/10/29 13:13:06;;;;;;;;;;;20.60;73.50;;;;;;5098857;28;906;-67
2022/10/29 13:15:35;;;;;;;;;;;20.60;73.30;;;;;;5096044;28;1038;-67
2022/10/29 13:18:05;;;;;;;;;;;20.60;73.10;;;;;;5094715;28;1279;-68
2022/10/29 13:20:46;;;;;;;;;;;20.60;72.60;;;;;;5077560;28;2135;-68
2022/10/29 13:23:21;;;;;;;;;;;20.60;72.40;;;;;;5077695;28;1358;-68
2022/10/29 13:25:47;;;;;;;;;;;20.70;72.00;;;;;;5093168;28;1381;-68
2022/10/29 13:28:12;;;;;;;;;;;20.70;71.70;;;;;;5095722;28;1901;-65
2022/10/29 13:30:38;;;;;;;;;;;20.60;71.70;;;;;;5097607;28;989;-66
2022/10/29 13:33:22;;;;;;;;;;;20.70;71.50;;;;;;5077075;28;906;-66
2022/10/29 13:35:53;;;;;;;;;;;20.70;71.40;;;;;;5095672;28;884;-67
2022/10/29 13:38:19;;;;;;;;;;;20.70;71.20;;;;;;5092317;28;1293;-66
2022/10/29 13:40:55;;;;;;;;;;;20.70;71.10;;;;;;5085389;28;1546;-66
2022/10/29 13:43:20;;;;;;;;;;;20.70;71.80;;;;;;5077521;28;1018;-66
2022/10/29 13:45:47;;;;;;;;;;;20.70;71.00;;;;;;5097270;28;1073;-67
2022/10/29 13:48:45;;;;;;;;;;;20.70;71.20;;;;;;5101734;28;1969;-67
2022/10/29 13:51:13;;;;;;;;;;;20.70;71.40;;;;;;5068484;28;1584;-66
2022/10/29 13:53:42;;;;;;;;;;;20.70;71.80;;;;;;5076992;28;939;-67
2022/10/29 13:56:09;;;;;;;;;;;20.70;72.00;;;;;;5077231;28;835;-67
2022/10/29 13:58:34;;;;;;;;;;;20.70;72.00;;;;;;5077920;28;1308;-67
2022/10/29 14:01:00;;;;;;;;;;;20.60;72.00;;;;;;5077347;28;874;-69
2022/10/29 14:03:28;;;;;;;;;;;20.70;71.70;;;;;;5077271;28;1309;-68
2022/10/29 14:06:10;;;;;;;;;;;20.60;71.50;;;;;;5077707;28;1370;-68
2022/10/29 14:08:37;;;;;;;;;;;20.60;71.70;;;;;;5076785;28;1909;-68
2022/10/29 14:11:08;;;;;;;;;;;20.60;71.80;;;;;;5076104;28;881;-71
2022/10/29 14:13:46;;;;;;;;;;;20.60;71.80;;;;;;5077563;28;868;-68
2022/10/29 14:16:14;;;;;;;;;;;20.60;71.90;;;;;;5081063;28;867;-69
2022/10/29 14:18:43;;;;;;;;;;;20.60;72.00;;;;;;5073392;28;1274;-69
2022/10/29 14:21:18;;;;;;;;;;;20.60;71.70;;;;;;5075513;28;850;-68
2022/10/29 14:23:53;;;;;;;;;;;20.60;71.70;;;;;;5092726;28;1045;-71
2022/10/29 14:26:18;;;;;;;;;;;20.60;71.50;;;;;;5091910;28;872;-67
2022/10/29 14:28:44;;;;;;;;;;;20.60;71.60;;;;;;5101331;28;1902;-69
2022/10/29 14:31:09;;;;;;;;;;;20.60;71.60;;;;;;5092539;28;911;-67
2022/10/29 14:33:35;;;;;;;;;;;20.60;72.00;;;;;;5083504;28;1759;-67
2022/10/29 14:36:11;;;;;;;;;;;20.60;72.30;;;;;;5088274;28;1107;-68
2022/10/29 14:38:41;;;;;;;;;;;20.60;72.00;;;;;;5069922;28;1269;-67
2022/10/29 14:41:07;;;;;;;;;;;20.60;72.00;;;;;;5089264;28;777;-67
2022/10/29 14:43:33;;;;;;;;;;;20.60;71.90;;;;;;5077505;28;1224;-68